Time;durP1;ratioP1;P1;durP2;ratioP2;P2;SDS_P1;SDS_P2;PMS_P1;PMS_P2;Temp;Humidity;BMP_temperature;BMP_pressure;BME280_temperature;BME280_humidity;BME280_pressure;Samples;Min_cycle;Max_cycle;Signal;HPM_P1;HPM_P2
2024/02/19 00:00:54;;;;;;;1.17;0.75;;;22.20;39.90;;;;;;5071804;28;20699;-35
2024/02/19 00:03:20;;;;;;;;;;;22.20;39.90;;;;;;5066383;28;20041;-34
2024/02/19 00:05:47;;;;;;;1.33;0.70;;;22.20;39.80;;;;;;5068939;28;19913;-33
2024/02/19 00:08:13;;;;;;;0.98;0.70;;;22.20;39.70;;;;;;5069022;28;20040;-33
2024/02/19 00:10:39;;;;;;;0.70;0.60;;;22.20;39.60;;;;;;5071210;28;20025;-34
2024/02/19 00:13:06;;;;;;;0.82;0.70;;;22.10;39.40;;;;;;5071294;28;20029;-34
2024/02/19 00:15:32;;;;;;;0.70;0.55;;;22.20;39.50;;;;;;5073923;28;20035;-34
2024/02/19 00:17:59;;;;;;;1.85;0.50;;;22.10;39.70;;;;;;5068203;28;20115;-34
2024/02/19 00:20:25;;;;;;;1.13;0.80;;;22.20;39.80;;;;;;5071426;28;21810;-34
2024/02/19 00:22:51;;;;;;;0.80;0.60;;;22.20;39.80;;;;;;5065012;28;20100;-33
2024/02/19 00:25:18;;;;;;;0.98;0.70;;;22.20;39.70;;;;;;5069640;28;20055;-34
2024/02/19 00:27:44;;;;;;;1.10;0.63;;;22.10;39.70;;;;;;5073016;28;20373;-34
2024/02/19 00:30:10;;;;;;;0.98;0.70;;;22.10;39.70;;;;;;5066231;28;20032;-34
2024/02/19 00:32:36;;;;;;;0.83;0.63;;;22.10;39.70;;;;;;5074657;28;20016;-33
2024/02/19 00:35:04;;;;;;;0.55;0.50;;;22.10;39.80;;;;;;5069706;28;20040;-33
2024/02/19 00:37:30;;;;;;;;;;;22.10;40.00;;;;;;5073850;28;20037;-33
2024/02/19 00:39:57;;;;;;;0.70;0.60;;;22.20;40.10;;;;;;5066921;28;19919;-34
2024/02/19 00:42:24;;;;;;;0.65;0.50;;;22.10;40.00;;;;;;5069603;28;20045;-34
2024/02/19 00:44:51;;;;;;;1.30;0.80;;;22.10;40.00;;;;;;5069629;28;20040;-34
2024/02/19 00:47:17;;;;;;;1.03;0.80;;;22.10;39.90;;;;;;5073755;28;20088;-33
2024/02/19 00:49:43;;;;;;;1.58;0.98;;;22.10;40.10;;;;;;5079290;28;20807;-34
2024/02/19 00:52:09;;;;;;;1.65;0.93;;;22.10;40.20;;;;;;5075953;28;20037;-34
2024/02/19 00:54:35;;;;;;;1.40;1.10;;;22.10;40.30;;;;;;5074430;28;20062;-34
2024/02/19 00:57:01;;;;;;;1.35;1.00;;;22.10;40.30;;;;;;5078975;28;20120;-34
2024/02/19 00:59:28;;;;;;;2.60;1.10;;;22.10;40.30;;;;;;5069763;28;20755;-34
2024/02/19 01:01:54;;;;;;;2.30;1.55;;;22.10;40.30;;;;;;5076350;28;20116;-34
2024/02/19 01:04:20;;;;;;;2.38;1.60;;;22.00;40.30;;;;;;5073730;28;20060;-34
2024/02/19 01:06:46;;;;;;;3.42;2.28;;;22.00;40.50;;;;;;5081663;28;20044;-34
2024/02/19 01:09:12;;;;;;;3.10;2.30;;;22.10;40.60;;;;;;5085543;28;20564;-34
2024/02/19 01:11:38;;;;;;;3.40;2.60;;;22.10;40.60;;;;;;5078236;28;20020;-34
2024/02/19 01:14:05;;;;;;;2.88;2.22;;;22.10;40.60;;;;;;5079068;28;20086;-34
2024/02/19 01:16:32;;;;;;;3.03;2.70;;;22.00;40.50;;;;;;5079074;28;20111;-33
2024/02/19 01:18:58;;;;;;;4.45;3.50;;;22.00;40.40;;;;;;5082468;28;20041;-34
2024/02/19 01:21:24;;;;;;;5.38;3.53;;;22.00;40.50;;;;;;5083903;28;21439;-34
2024/02/19 01:23:51;;;;;;;4.93;3.50;;;22.00;40.60;;;;;;5085433;28;20062;-34
2024/02/19 01:26:20;;;;;;;5.37;3.80;;;22.00;40.70;;;;;;5085525;28;20036;-33
2024/02/19 01:28:47;;;;;;;6.18;4.25;;;22.00;40.70;;;;;;5081073;28;20025;-34
2024/02/19 01:31:14;;;;;;;4.60;4.18;;;22.00;40.70;;;;;;5079304;28;20036;-34
2024/02/19 01:33:40;;;;;;;5.05;3.65;;;22.00;40.60;;;;;;5076583;28;20542;-34
2024/02/19 01:36:07;;;;;;;4.97;3.58;;;22.00;40.50;;;;;;5085592;28;20548;-35
2024/02/19 01:38:33;;;;;;;6.63;3.70;;;22.00;40.60;;;;;;5067848;28;20074;-34
2024/02/19 01:41:00;;;;;;;8.32;3.80;;;22.00;40.80;;;;;;5075849;28;20041;-34
2024/02/19 01:43:27;;;;;;;4.15;3.53;;;22.00;41.00;;;;;;5081935;28;20020;-34
2024/02/19 01:45:54;;;;;;;4.43;3.33;;;22.00;41.00;;;;;;5080439;28;20045;-34
2024/02/19 01:48:20;;;;;;;5.70;3.40;;;22.00;41.00;;;;;;5080684;28;20046;-33
2024/02/19 01:50:49;;;;;;;5.80;3.03;;;22.00;40.90;;;;;;5076226;28;20044;-34
2024/02/19 01:53:16;;;;;;;3.45;2.80;;;22.00;40.80;;;;;;5080759;28;20060;-34
2024/02/19 01:55:42;;;;;;;4.80;3.23;;;21.90;40.70;;;;;;5064620;28;20036;-34
2024/02/19 01:58:10;;;;;;;3.80;2.97;;;21.90;40.80;;;;;;5078780;28;20078;-34
2024/02/19 02:00:37;;;;;;;3.55;2.53;;;22.00;41.00;;;;;;5078197;28;20021;-33
2024/02/19 02:03:03;;;;;;;3.83;2.70;;;22.00;41.00;;;;;;5082522;28;20032;-33
2024/02/19 02:05:29;;;;;;;3.63;2.80;;;22.00;40.90;;;;;;5066682;28;20039;-33
2024/02/19 02:07:55;;;;;;;3.72;2.67;;;21.90;40.80;;;;;;5082144;28;20032;-34
2024/02/19 02:10:22;;;;;;;4.72;2.60;;;21.90;40.70;;;;;;5061113;28;20020;-34
2024/02/19 02:12:48;;;;;;;2.78;2.15;;;21.90;40.70;;;;;;5061871;28;20033;-34
2024/02/19 02:15:14;;;;;;;2.50;1.90;;;21.90;40.90;;;;;;5084490;28;20062;-34
2024/02/19 02:17:43;;;;;;;2.30;2.00;;;21.90;41.00;;;;;;5079639;28;20024;-34
2024/02/19 02:20:10;;;;;;;2.67;2.17;;;21.90;41.00;;;;;;5082121;28;20037;-34
2024/02/19 02:22:38;;;;;;;3.30;2.25;;;21.90;40.80;;;;;;5078699;28;20017;-34
2024/02/19 02:25:05;;;;;;;2.80;2.05;;;21.90;40.70;;;;;;5083896;28;20070;-34
2024/02/19 02:27:31;;;;;;;2.53;1.83;;;21.90;40.80;;;;;;5082965;28;20028;-34
2024/02/19 02:29:57;;;;;;;2.30;1.80;;;21.90;40.90;;;;;;5081726;28;20039;-35
2024/02/19 02:32:24;;;;;;;2.97;1.83;;;21.90;41.00;;;;;;5083047;28;20080;-34
2024/02/19 02:34:50;;;;;;;2.55;1.77;;;21.90;41.00;;;;;;5079310;28;20036;-34
2024/02/19 02:37:17;;;;;;;2.83;1.80;;;21.90;40.90;;;;;;5082190;28;20039;-34
2024/02/19 02:39:44;;;;;;;2.33;1.67;;;21.90;40.80;;;;;;5077357;28;20035;-34
2024/02/19 02:42:10;;;;;;;1.98;1.38;;;21.80;40.80;;;;;;5078156;28;20052;-33
2024/02/19 02:44:37;;;;;;;2.60;1.73;;;21.80;41.00;;;;;;5083775;28;20040;-33
2024/02/19 02:47:03;;;;;;;2.50;1.70;;;21.90;41.10;;;;;;5084187;28;20094;-34
2024/02/19 02:49:29;;;;;;;2.97;1.90;;;21.90;41.10;;;;;;5076961;28;20039;-34
2024/02/19 02:51:55;;;;;;;1.88;1.58;;;21.90;41.00;;;;;;5083144;28;20027;-33
2024/02/19 02:54:22;;;;;;;2.08;1.70;;;21.80;40.90;;;;;;5082993;28;20033;-34
2024/02/19 02:56:48;;;;;;;3.00;1.88;;;21.80;40.90;;;;;;5081416;28;20021;-34
2024/02/19 02:59:14;;;;;;;2.75;1.73;;;21.80;41.00;;;;;;5075644;28;20107;-37
2024/02/19 03:01:41;;;;;;;2.03;1.77;;;21.80;41.10;;;;;;5081850;28;20025;-34
2024/02/19 03:04:07;;;;;;;2.83;1.90;;;21.80;41.10;;;;;;5069491;28;20028;-35
2024/02/19 03:06:33;;;;;;;2.13;1.55;;;21.80;41.00;;;;;;5056065;28;20055;-34
2024/02/19 03:09:00;;;;;;;4.10;1.92;;;21.80;41.00;;;;;;5058083;28;20067;-33
2024/02/19 03:11:26;;;;;;;3.27;1.70;;;21.80;40.90;;;;;;5063659;28;20029;-34
2024/02/19 03:13:52;;;;;;;2.25;1.80;;;21.80;41.00;;;;;;5059129;28;20028;-34
2024/02/19 03:16:19;;;;;;;2.47;1.67;;;21.80;41.10;;;;;;5062748;28;20100;-33
2024/02/19 03:18:45;;;;;;;3.83;1.83;;;21.80;41.20;;;;;;5060186;28;20033;-33
2024/02/19 03:21:15;;;;;;;1.67;1.30;;;21.80;41.10;;;;;;5059550;28;20029;-33
2024/02/19 03:23:53;;;;;;;2.17;1.73;;;21.80;41.00;;;;;;5041498;28;20034;-34
2024/02/19 03:26:25;;;;;;;;;;;21.80;40.90;;;;;;5058573;28;20022;-34
2024/02/19 03:28:52;;;;;;;2.03;1.65;;;21.80;41.00;;;;;;5062980;28;19908;-34
2024/02/19 03:31:19;;;;;;;2.03;1.70;;;21.80;41.10;;;;;;5059247;28;20036;-34
2024/02/19 03:33:46;;;;;;;2.40;1.60;;;21.80;41.10;;;;;;5059529;28;20409;-35
2024/02/19 03:36:12;;;;;;;1.90;1.70;;;21.80;41.00;;;;;;5061160;28;20064;-34
2024/02/19 03:38:39;;;;;;;2.53;1.77;;;21.80;40.90;;;;;;5061101;28;20041;-34
2024/02/19 03:41:06;;;;;;;1.52;1.27;;;21.80;40.90;;;;;;5061514;28;20029;-34
2024/02/19 03:43:33;;;;;;;1.55;1.42;;;21.80;41.00;;;;;;5059243;28;20074;-34
2024/02/19 03:46:01;;;;;;;1.93;1.60;;;21.80;41.10;;;;;;5063471;28;20033;-34
2024/02/19 03:48:27;;;;;;;1.48;1.38;;;21.80;41.10;;;;;;5060434;28;20281;-34
2024/02/19 03:50:53;;;;;;;2.28;1.40;;;21.80;41.00;;;;;;5062837;28;20048;-33
2024/02/19 03:53:20;;;;;;;1.92;1.55;;;21.80;41.00;;;;;;5062344;28;20035;-33
2024/02/19 03:55:46;;;;;;;2.83;1.30;;;21.80;40.90;;;;;;5062320;28;20040;-34
2024/02/19 03:58:12;;;;;;;1.48;1.30;;;21.80;41.00;;;;;;5058330;28;20037;-34
2024/02/19 04:00:38;;;;;;;1.60;1.40;;;21.80;41.10;;;;;;5061101;28;20033;-40
2024/02/19 04:03:04;;;;;;;1.65;1.40;;;21.80;41.10;;;;;;5051171;28;20030;-34
2024/02/19 04:05:31;;;;;;;1.93;1.33;;;21.80;41.10;;;;;;5062258;28;20128;-33
2024/02/19 04:07:57;;;;;;;2.92;1.80;;;21.80;41.00;;;;;;5062781;28;20082;-34
2024/02/19 04:10:24;;;;;;;1.55;1.35;;;21.80;40.80;;;;;;5062042;28;20036;-35
2024/02/19 04:12:50;;;;;;;1.83;1.50;;;21.70;40.90;;;;;;5060862;28;20021;-35
2024/02/19 04:15:16;;;;;;;2.53;1.52;;;21.80;41.10;;;;;;5058038;28;20044;-35
2024/02/19 04:17:42;;;;;;;2.00;1.30;;;21.80;41.20;;;;;;5060433;28;20048;-33
2024/02/19 04:20:09;;;;;;;2.30;1.55;;;21.80;41.10;;;;;;5061644;28;20045;-33
2024/02/19 04:22:36;;;;;;;1.50;1.30;;;21.80;41.10;;;;;;5057705;28;20025;-34
2024/02/19 04:25:02;;;;;;;2.20;1.70;;;21.80;41.00;;;;;;5044916;28;20094;-33
2024/02/19 04:27:28;;;;;;;2.00;1.60;;;21.70;41.00;;;;;;5059335;28;20086;-34
2024/02/19 04:29:54;;;;;;;1.58;1.38;;;21.80;41.80;;;;;;5057785;28;20032;-35
2024/02/19 04:32:21;;;;;;;1.48;1.38;;;21.80;41.20;;;;;;5059618;28;20147;-33
2024/02/19 04:34:47;;;;;;;2.07;1.83;;;21.80;41.20;;;;;;5058733;28;20059;-33
2024/02/19 04:37:14;;;;;;;1.70;1.40;;;21.80;41.10;;;;;;5062047;28;20032;-33
2024/02/19 04:39:40;;;;;;;;;;;21.80;41.00;;;;;;5062813;28;20029;-34
2024/02/19 04:42:06;;;;;;;2.63;1.40;;;21.80;40.90;;;;;;5055438;28;19982;-34
2024/02/19 04:44:32;;;;;;;2.17;1.50;;;21.70;41.00;;;;;;5062049;28;20032;-34
2024/02/19 04:46:58;;;;;;;2.38;1.83;;;21.80;41.10;;;;;;5060766;28;20032;-34
2024/02/19 04:49:26;;;;;;;1.90;1.45;;;21.80;41.20;;;;;;5061334;28;20037;-34
2024/02/19 04:51:52;;;;;;;2.72;1.80;;;21.80;41.10;;;;;;5050125;28;20075;-34
2024/02/19 04:54:19;;;;;;;1.80;1.58;;;21.80;41.00;;;;;;5051774;28;20068;-35
2024/02/19 04:56:46;;;;;;;3.00;1.38;;;21.70;40.90;;;;;;5057665;28;20075;-34
2024/02/19 04:59:12;;;;;;;2.38;1.70;;;21.70;41.00;;;;;;5060634;28;20036;-34
2024/02/19 05:01:38;;;;;;;2.25;1.85;;;21.80;41.20;;;;;;5055191;28;20072;-34
2024/02/19 05:04:05;;;;;;;1.80;1.40;;;21.80;41.20;;;;;;5059933;28;20029;-35
2024/02/19 05:06:31;;;;;;;3.53;1.50;;;21.80;41.20;;;;;;5065448;28;20067;-34
2024/02/19 05:08:57;;;;;;;1.63;1.52;;;21.80;41.10;;;;;;5076428;28;20052;-35
2024/02/19 05:11:23;;;;;;;2.60;1.92;;;21.70;41.00;;;;;;5061476;28;20085;-34
2024/02/19 05:13:49;;;;;;;1.85;1.35;;;21.70;41.10;;;;;;5082134;28;20075;-34
2024/02/19 05:16:15;;;;;;;1.50;1.40;;;21.70;41.20;;;;;;5073868;28;20043;-34
2024/02/19 05:18:42;;;;;;;3.00;1.58;;;21.80;41.40;;;;;;5076911;28;20486;-34
2024/02/19 05:21:08;;;;;;;1.50;1.40;;;21.80;41.40;;;;;;5073182;28;20064;-34
2024/02/19 05:23:54;;;;;;;1.95;1.50;;;21.80;41.20;;;;;;4999972;28;20038;-35
2024/02/19 05:26:25;;;;;;;2.03;1.50;;;21.70;41.10;;;;;;5000191;28;20035;-34
2024/02/19 05:28:55;;;;;;;1.60;1.38;;;21.70;41.10;;;;;;4999854;28;20065;-36
2024/02/19 05:31:34;;;;;;;1.73;1.42;;;21.70;41.20;;;;;;4993740;28;20027;-33
2024/02/19 05:34:02;;;;;;;1.92;1.48;;;21.70;41.30;;;;;;4992420;28;20504;-34
2024/02/19 05:36:28;;;;;;;3.13;1.55;;;21.80;41.40;;;;;;4997284;28;20074;-34
2024/02/19 05:38:54;;;;;;;2.67;1.80;;;21.80;41.30;;;;;;4999895;28;20030;-34
2024/02/19 05:41:20;;;;;;;2.38;1.70;;;21.70;41.10;;;;;;4983233;28;20075;-33
2024/02/19 05:43:47;;;;;;;1.95;1.50;;;21.70;41.10;;;;;;4999945;28;20034;-34
2024/02/19 05:46:16;;;;;;;2.43;1.40;;;21.70;41.10;;;;;;4999693;28;20527;-34
2024/02/19 05:48:43;;;;;;;2.58;1.70;;;21.70;41.20;;;;;;4997001;28;20416;-34
2024/02/19 05:51:10;;;;;;;2.37;1.70;;;21.80;41.30;;;;;;4999417;28;20038;-34
2024/02/19 05:53:36;;;;;;;2.13;1.63;;;21.80;41.30;;;;;;4992581;28;20029;-42
2024/02/19 05:56:04;;;;;;;2.28;1.88;;;21.80;41.20;;;;;;5003801;28;20120;-34
2024/02/19 05:58:30;;;;;;;;;;;21.70;41.10;;;;;;4988127;28;20066;-34
2024/02/19 06:00:56;;;;;;;2.20;1.58;;;21.70;41.00;;;;;;5037253;28;19916;-34
2024/02/19 06:03:24;;;;;;;2.03;1.60;;;21.70;41.10;;;;;;5082123;28;20028;-34
2024/02/19 06:05:51;;;;;;;2.42;1.98;;;21.70;41.20;;;;;;5085346;28;20040;-33
2024/02/19 06:08:17;;;;;;;2.25;1.40;;;21.80;41.30;;;;;;5078058;28;20143;-33
2024/02/19 06:10:46;;;;;;;2.60;1.70;;;21.70;41.10;;;;;;5083435;28;20028;-34
2024/02/19 06:13:13;;;;;;;2.10;1.60;;;21.70;41.00;;;;;;5083583;28;20025;-34
2024/02/19 06:15:39;;;;;;;1.50;1.40;;;21.70;41.00;;;;;;5075518;28;20432;-34
2024/02/19 06:18:05;;;;;;;1.92;1.52;;;21.70;41.00;;;;;;5082912;28;20036;-34
2024/02/19 06:20:32;;;;;;;2.65;1.77;;;21.70;41.20;;;;;;5084151;28;20480;-34
2024/02/19 06:22:59;;;;;;;1.60;1.42;;;21.70;41.20;;;;;;5083241;28;20047;-34
2024/02/19 06:25:25;;;;;;;2.55;1.65;;;21.70;41.10;;;;;;5082552;28;20029;-35
2024/02/19 06:27:51;;;;;;;2.28;1.70;;;21.70;41.10;;;;;;5078479;28;20092;-35
2024/02/19 06:30:18;;;;;;;2.70;1.80;;;21.70;40.90;;;;;;5077742;28;20041;-34
2024/02/19 06:32:44;;;;;;;2.05;1.58;;;21.70;41.00;;;;;;5082819;28;20054;-34
2024/02/19 06:35:10;;;;;;;2.25;1.60;;;21.70;41.10;;;;;;5081704;28;20071;-34
2024/02/19 06:37:37;;;;;;;2.10;1.70;;;21.70;41.20;;;;;;5080325;28;20074;-35
2024/02/19 06:40:03;;;;;;;1.88;1.45;;;21.70;41.20;;;;;;5082464;28;20032;-34
2024/02/19 06:42:29;;;;;;;2.37;1.67;;;21.70;41.10;;;;;;5077625;28;20028;-34
2024/02/19 06:44:55;;;;;;;1.63;1.40;;;21.70;41.00;;;;;;5069442;28;20565;-36
2024/02/19 06:47:21;;;;;;;1.88;1.70;;;21.70;40.90;;;;;;5074832;28;20036;-34
2024/02/19 06:49:47;;;;;;;1.70;1.58;;;21.70;41.00;;;;;;5072222;28;20050;-34
2024/02/19 06:52:14;;;;;;;2.22;1.95;;;21.70;41.10;;;;;;5071119;28;20480;-34
2024/02/19 06:54:40;;;;;;;1.95;1.52;;;21.70;41.20;;;;;;5071051;28;20124;-39
2024/02/19 06:57:07;;;;;;;2.00;1.60;;;21.70;41.20;;;;;;5069596;28;20039;-34
2024/02/19 06:59:33;;;;;;;1.70;1.42;;;21.70;41.00;;;;;;5069601;28;20096;-34
2024/02/19 07:01:59;;;;;;;1.92;1.67;;;21.70;40.90;;;;;;5070472;28;20115;-34
2024/02/19 07:04:25;;;;;;;1.77;1.38;;;21.70;40.90;;;;;;5068437;28;20033;-34
2024/02/19 07:06:51;;;;;;;2.60;1.80;;;21.70;41.10;;;;;;5056563;28;20045;-34
2024/02/19 07:09:18;;;;;;;2.00;1.53;;;21.70;41.20;;;;;;5055070;28;20059;-34
2024/02/19 07:11:44;;;;;;;2.15;1.50;;;21.70;41.20;;;;;;5051717;28;20119;-34
2024/02/19 07:14:10;;;;;;;2.30;1.55;;;21.70;41.10;;;;;;5049108;28;20115;-34
2024/02/19 07:16:36;;;;;;;2.08;1.88;;;21.70;41.00;;;;;;5050183;28;20025;-34
2024/02/19 07:19:02;;;;;;;1.95;1.75;;;21.60;40.90;;;;;;5051440;28;20091;-34
2024/02/19 07:21:28;;;;;;;1.55;1.42;;;21.70;41.10;;;;;;5051873;28;20033;-34
2024/02/19 07:23:54;;;;;;;2.60;1.77;;;21.70;41.20;;;;;;5047755;28;20034;-34
2024/02/19 07:26:20;;;;;;;1.70;1.42;;;21.70;41.20;;;;;;5052773;28;20025;-34
2024/02/19 07:28:46;;;;;;;1.80;1.60;;;21.70;41.70;;;;;;5049730;28;20029;-34
2024/02/19 07:31:13;;;;;;;2.10;1.70;;;21.70;41.00;;;;;;5051258;28;20049;-34
2024/02/19 07:33:39;;;;;;;3.15;1.95;;;21.70;40.90;;;;;;5052801;28;20035;-34
2024/02/19 07:36:05;;;;;;;2.13;1.85;;;21.70;41.00;;;;;;5051551;28;20456;-34
2024/02/19 07:38:31;;;;;;;2.08;1.85;;;21.70;41.20;;;;;;5057331;28;20760;-37
2024/02/19 07:40:57;;;;;;;2.00;1.60;;;21.70;41.20;;;;;;5047414;28;20125;-34
2024/02/19 07:43:23;;;;;;;2.10;1.80;;;21.70;41.20;;;;;;5053219;28;20097;-34
2024/02/19 07:45:50;;;;;;;2.80;1.88;;;21.70;41.10;;;;;;5055195;28;20033;-34
2024/02/19 07:48:16;;;;;;;2.63;1.70;;;21.70;41.00;;;;;;5051178;28;20042;-33
2024/02/19 07:50:42;;;;;;;2.47;1.70;;;21.60;40.90;;;;;;5051586;28;20032;-33
2024/02/19 07:53:08;;;;;;;1.98;1.52;;;21.60;41.00;;;;;;5048292;28;20033;-39
2024/02/19 07:55:37;;;;;;;1.73;1.55;;;21.70;41.20;;;;;;5051767;28;20048;-34
2024/02/19 07:58:04;;;;;;;2.08;1.70;;;21.70;41.20;;;;;;5054649;28;20036;-34
2024/02/19 08:00:30;;;;;;;1.58;1.17;;;21.70;41.10;;;;;;5051831;28;20052;-34
2024/02/19 08:02:56;;;;;;;2.20;1.73;;;21.70;41.00;;;;;;5058800;28;20063;-34
2024/02/19 08:05:22;;;;;;;2.00;1.73;;;21.70;41.00;;;;;;5049827;28;20061;-35
2024/02/19 08:07:49;;;;;;;2.85;1.90;;;21.60;41.10;;;;;;5052504;28;20071;-33
2024/02/19 08:10:15;;;;;;;;;;;21.70;41.20;;;;;;5049797;28;20033;-33
2024/02/19 08:12:41;;;;;;;2.10;1.70;;;21.70;41.30;;;;;;5054593;28;19923;-33
2024/02/19 08:15:08;;;;;;;1.95;1.58;;;21.70;41.20;;;;;;5053193;28;20041;-33
2024/02/19 08:17:34;;;;;;;1.75;1.65;;;21.70;41.10;;;;;;5056011;28;20045;-34
2024/02/19 08:20:01;;;;;;;2.15;1.90;;;21.60;41.00;;;;;;5049495;28;20065;-33
2024/02/19 08:22:27;;;;;;;1.90;1.48;;;21.60;41.10;;;;;;5049774;28;20140;-34
2024/02/19 08:24:53;;;;;;;2.13;1.92;;;21.70;41.20;;;;;;5053942;28;20029;-33
2024/02/19 08:27:19;;;;;;;2.63;1.92;;;21.70;41.30;;;;;;5049085;28;20029;-34
2024/02/19 08:29:45;;;;;;;1.90;1.70;;;21.70;41.20;;;;;;5049946;28;20029;-33
2024/02/19 08:32:11;;;;;;;2.42;1.88;;;21.70;41.10;;;;;;5045966;28;20689;-34
2024/02/19 08:34:37;;;;;;;2.08;1.63;;;21.70;41.00;;;;;;5051894;28;20315;-34
2024/02/19 08:37:05;;;;;;;3.45;1.70;;;21.60;41.00;;;;;;5052195;28;20032;-34
2024/02/19 08:39:31;;;;;;;3.83;1.63;;;21.70;41.20;;;;;;5054783;28;20032;-34
2024/02/19 08:41:58;;;;;;;1.75;1.60;;;21.70;41.30;;;;;;5050450;28;20038;-34
2024/02/19 08:44:24;;;;;;;2.00;1.70;;;21.70;41.20;;;;;;5031575;28;20035;-34
2024/02/19 08:46:50;;;;;;;2.22;1.88;;;21.70;41.10;;;;;;5053932;28;20749;-34
2024/02/19 08:49:16;;;;;;;2.40;1.70;;;21.70;41.00;;;;;;5055518;28;20032;-36
2024/02/19 08:51:42;;;;;;;1.98;1.60;;;21.70;41.00;;;;;;5061097;28;20033;-34
2024/02/19 08:54:09;;;;;;;5.03;2.00;;;21.70;41.10;;;;;;5054704;28;20028;-34
2024/02/19 08:56:35;;;;;;;1.73;1.52;;;21.70;41.30;;;;;;5059477;28;20084;-34
2024/02/19 08:59:03;;;;;;;3.78;1.67;;;21.70;41.30;;;;;;5057441;28;20025;-38
2024/02/19 09:01:30;;;;;;;2.03;1.65;;;21.70;41.20;;;;;;5056554;28;20767;-34
2024/02/19 09:03:56;;;;;;;2.53;1.70;;;21.70;41.10;;;;;;5056108;28;20024;-34
2024/02/19 09:06:43;;;;;;;2.35;1.60;;;21.70;41.00;;;;;;5060350;28;20109;-35
2024/02/19 09:09:09;;;;;;;5.80;1.80;;;21.70;41.20;;;;;;5012558;28;20547;-34
2024/02/19 09:11:35;;;;;;;1.83;1.50;;;21.70;41.20;;;;;;5014418;28;20086;-33
2024/02/19 09:14:02;;;;;;;1.55;1.30;;;21.70;41.30;;;;;;5015840;28;20045;-33
2024/02/19 09:16:28;;;;;;;2.25;1.70;;;21.70;41.20;;;;;;5014492;28;20044;-34
2024/02/19 09:18:55;;;;;;;1.75;1.40;;;21.70;41.10;;;;;;5018775;28;20061;-34
2024/02/19 09:21:21;;;;;;;1.80;1.50;;;21.70;41.00;;;;;;5017076;28;20111;-34
2024/02/19 09:23:47;;;;;;;2.42;1.30;;;21.70;41.00;;;;;;5020092;28;20029;-34
2024/02/19 09:26:16;;;;;;;1.45;1.10;;;21.70;41.10;;;;;;5015901;28;20035;-35
2024/02/19 09:28:44;;;;;;;1.83;1.50;;;21.70;41.20;;;;;;5013978;28;20034;-33
2024/02/19 09:31:10;;;;;;;1.38;1.10;;;21.70;41.10;;;;;;5016598;28;20038;-34
2024/02/19 09:33:36;;;;;;;2.38;1.20;;;21.70;41.00;;;;;;5022690;28;20033;-34
2024/02/19 09:36:03;;;;;;;2.67;1.30;;;21.70;40.80;;;;;;5024017;28;20041;-34
2024/02/19 09:38:32;;;;;;;1.60;1.20;;;21.70;40.80;;;;;;5021125;28;20033;-35
2024/02/19 09:41:04;;;;;;;1.25;1.15;;;21.70;41.00;;;;;;5016748;28;20042;-34
2024/02/19 09:43:30;;;;;;;1.45;1.15;;;21.70;41.00;;;;;;5019722;28;20033;-35
2024/02/19 09:45:56;;;;;;;1.75;1.10;;;21.70;40.90;;;;;;5044156;28;20044;-34
2024/02/19 09:48:23;;;;;;;1.27;1.10;;;21.70;40.70;;;;;;5084201;28;20031;-34
2024/02/19 09:50:49;;;;;;;1.92;1.13;;;21.70;40.70;;;;;;5062945;28;20051;-34
2024/02/19 09:53:23;;;;;;;1.73;1.10;;;21.70;40.70;;;;;;5082688;28;20033;-35
2024/02/19 09:55:50;;;;;;;0.90;0.80;;;21.70;40.80;;;;;;5084897;28;20040;-35
2024/02/19 09:58:16;;;;;;;1.23;0.82;;;21.70;40.90;;;;;;5083028;28;20044;-35
2024/02/19 10:00:42;;;;;;;1.00;0.73;;;21.70;40.80;;;;;;5058409;28;20051;-34
2024/02/19 10:03:08;;;;;;;1.40;0.90;;;21.70;40.70;;;;;;5082084;28;20024;-35
2024/02/19 10:05:34;;;;;;;1.30;0.93;;;21.70;40.60;;;;;;5084693;28;20045;-34
2024/02/19 10:08:05;;;;;;;0.98;0.70;;;21.70;40.50;;;;;;5081991;28;20059;-34
2024/02/19 10:10:32;;;;;;;1.63;0.90;;;21.70;40.60;;;;;;5085036;28;20021;-34
2024/02/19 10:12:59;;;;;;;1.05;0.80;;;21.70;40.70;;;;;;5084890;28;20036;-34
2024/02/19 10:15:25;;;;;;;0.90;0.77;;;21.70;40.70;;;;;;5082378;28;20041;-33
2024/02/19 10:17:51;;;;;;;0.97;0.87;;;21.70;40.60;;;;;;5082691;28;20055;-33
2024/02/19 10:20:18;;;;;;;1.58;0.93;;;21.70;40.50;;;;;;5084207;28;20050;-33
2024/02/19 10:22:44;;;;;;;1.00;0.88;;;21.70;40.40;;;;;;5077750;28;20025;-33
2024/02/19 10:25:12;;;;;;;1.50;1.00;;;21.70;40.50;;;;;;5077678;28;20037;-34
2024/02/19 10:27:38;;;;;;;1.10;0.80;;;21.70;40.60;;;;;;5079856;28;20036;-33
2024/02/19 10:30:08;;;;;;;1.33;0.60;;;21.80;40.70;;;;;;5054330;28;20053;-34
2024/02/19 10:32:34;;;;;;;1.20;0.80;;;21.80;40.60;;;;;;5056416;28;20029;-33
2024/02/19 10:35:01;;;;;;;1.10;0.80;;;21.80;40.50;;;;;;5049266;28;20037;-33
2024/02/19 10:37:27;;;;;;;1.25;0.90;;;21.70;40.30;;;;;;5078470;28;20536;-34
2024/02/19 10:39:53;;;;;;;1.98;0.80;;;21.70;40.40;;;;;;5083803;28;20043;-34
2024/02/19 10:42:20;;;;;;;1.23;0.80;;;21.70;40.50;;;;;;5084575;28;20382;-33
2024/02/19 10:44:46;;;;;;;0.80;0.70;;;21.70;40.60;;;;;;5075957;28;20055;-33
2024/02/19 10:47:12;;;;;;;1.00;0.70;;;21.70;40.60;;;;;;5066735;28;20040;-33
2024/02/19 10:49:48;;;;;;;1.30;0.75;;;21.80;40.60;;;;;;5064150;28;20031;-34
2024/02/19 10:52:14;;;;;;;0.77;0.68;;;21.70;40.40;;;;;;5084224;28;20080;-34
2024/02/19 10:54:42;;;;;;;0.75;0.60;;;21.70;40.50;;;;;;5080933;28;20048;-34
2024/02/19 10:57:08;;;;;;;0.70;0.60;;;21.70;40.60;;;;;;5083330;28;20078;-34
2024/02/19 10:59:38;;;;;;;1.38;0.68;;;21.80;40.70;;;;;;5078917;28;20032;-34
2024/02/19 11:02:12;;;;;;;2.15;0.70;;;21.80;40.70;;;;;;5083787;28;20040;-34
2024/02/19 11:04:38;;;;;;;2.17;0.73;;;21.80;40.60;;;;;;5083803;28;20059;-34
2024/02/19 11:07:04;;;;;;;0.57;0.50;;;21.80;40.50;;;;;;5081795;28;20044;-34
2024/02/19 11:09:32;;;;;;;0.52;0.50;;;21.70;40.50;;;;;;5064208;28;20029;-35
2024/02/19 11:12:02;;;;;;;1.23;0.63;;;21.70;40.60;;;;;;5084372;28;20056;-34
2024/02/19 11:14:31;;;;;;;0.57;0.55;;;21.80;40.70;;;;;;5076610;28;20048;-34
2024/02/19 11:16:57;;;;;;;1.00;0.60;;;21.80;40.80;;;;;;5062423;28;20476;-35
2024/02/19 11:19:23;;;;;;;1.30;0.80;;;21.80;40.70;;;;;;5081514;28;20040;-34
2024/02/19 11:21:49;;;;;;;0.88;0.57;;;21.80;40.60;;;;;;5079847;28;20017;-34
2024/02/19 11:24:15;;;;;;;1.13;0.60;;;21.70;40.50;;;;;;5082329;28;20040;-34
2024/02/19 11:26:42;;;;;;;2.42;0.60;;;21.70;40.60;;;;;;5083922;28;20115;-34
2024/02/19 11:29:14;;;;;;;0.60;0.40;;;21.80;40.80;;;;;;5079533;28;20029;-35
2024/02/19 11:31:41;;;;;;;0.77;0.50;;;21.80;40.80;;;;;;5083296;28;20273;-34
2024/02/19 11:34:17;;;;;;;0.60;0.50;;;21.80;40.70;;;;;;5058150;28;20048;-35
2024/02/19 11:36:44;;;;;;;0.77;0.63;;;21.80;40.60;;;;;;5053722;28;20024;-34
2024/02/19 11:39:10;;;;;;;0.68;0.50;;;21.70;40.60;;;;;;5072076;28;20033;-34
2024/02/19 11:41:37;;;;;;;0.77;0.57;;;21.70;40.60;;;;;;5081612;28;20032;-34
2024/02/19 11:44:04;;;;;;;0.60;0.40;;;21.70;40.70;;;;;;5063394;28;20036;-34
2024/02/19 11:46:30;;;;;;;0.90;0.50;;;21.80;40.80;;;;;;5083051;28;20039;-34
2024/02/19 11:48:57;;;;;;;0.70;0.40;;;21.80;40.80;;;;;;5083486;28;20028;-34
2024/02/19 11:51:23;;;;;;;1.10;0.80;;;21.80;40.70;;;;;;5079074;28;20039;-34
2024/02/19 11:53:49;;;;;;;0.60;0.38;;;21.80;40.60;;;;;;5078750;28;20021;-34
2024/02/19 11:56:19;;;;;;;0.68;0.50;;;21.70;40.60;;;;;;5072741;28;20029;-34
2024/02/19 11:58:52;;;;;;;1.70;0.73;;;21.70;40.70;;;;;;5078984;28;20036;-34
2024/02/19 12:01:20;;;;;;;0.70;0.52;;;21.80;40.80;;;;;;5073567;28;20040;-34
2024/02/19 12:03:47;;;;;;;1.33;0.60;;;21.80;40.80;;;;;;5063248;28;20028;-34
2024/02/19 12:06:13;;;;;;;0.83;0.53;;;21.80;40.60;;;;;;5078861;28;20083;-34
2024/02/19 12:08:42;;;;;;;0.85;0.60;;;21.70;40.50;;;;;;5065050;28;20032;-34
2024/02/19 12:11:09;;;;;;;0.40;0.38;;;21.70;40.60;;;;;;5080387;28;20037;-34
2024/02/19 12:13:37;;;;;;;0.95;0.50;;;21.70;40.70;;;;;;5063589;28;20035;-35
2024/02/19 12:16:03;;;;;;;0.90;0.60;;;21.80;40.80;;;;;;5071778;28;20154;-34
2024/02/19 12:18:31;;;;;;;0.65;0.50;;;21.80;40.80;;;;;;5077644;28;20029;-34
2024/02/19 12:20:58;;;;;;;0.70;0.45;;;21.80;40.70;;;;;;5073346;28;20039;-34
2024/02/19 12:23:25;;;;;;;0.70;0.50;;;21.80;40.60;;;;;;5049911;28;20029;-38
2024/02/19 12:25:51;;;;;;;0.98;0.55;;;21.70;40.60;;;;;;5065040;28;20577;-34
2024/02/19 12:28:17;;;;;;;0.70;0.40;;;21.70;40.70;;;;;;5075091;28;20116;-38
2024/02/19 12:30:43;;;;;;;0.80;0.40;;;21.80;40.80;;;;;;5082286;28;20029;-34
2024/02/19 12:33:10;;;;;;;0.63;0.45;;;21.80;40.80;;;;;;5079980;28;20036;-34
2024/02/19 12:35:36;;;;;;;;;;;21.80;40.70;;;;;;5075599;28;20622;-34
2024/02/19 12:38:02;;;;;;;0.63;0.50;;;21.70;40.50;;;;;;5082346;28;19912;-34
2024/02/19 12:40:28;;;;;;;0.70;0.30;;;21.70;40.50;;;;;;5082040;28;20408;-34
2024/02/19 12:42:55;;;;;;;0.90;0.60;;;21.70;40.70;;;;;;5074032;28;20107;-34
2024/02/19 12:45:22;;;;;;;0.80;0.50;;;21.80;40.80;;;;;;5081136;28;20040;-34